Fortune Wing — VRHW2 — position and weather

sailwx.info

Track history (hours):
 
Tides and Currents Weather Stations Pressure Air Temp Water Temp Dewpoint Dewpoint Depression Visibility Wind Speed Wind Dir Waves Ship Positions

Fortune Wing

Last reported at 2015-May-27 05:32 UTC. Time now 2015-May-29 02:15 UTC.
Position N 36°16' E 014°57'.

Length 190 m; draft 11.3 m.

Type: Cargo ship. MMSI: 477389500.

Date/timePositionNaut miles runAvg speedWind from/ knotsBaromVisibWave heightAir tempDewpointWater temp
2015-May-27 05:32N 36°16' E 014°57'1313.2
2015-May-27 04:33N 36°22' E 014°42'1313.3
2015-May-27 03:33N 36°27' E 014°27'1313.1
2015-May-27 02:33N 36°33' E 014°12'1313.0
2015-May-27 01:33N 36°38' E 013°57'1413.3
2015-May-27 00:32N 36°43' E 013°42'1313.3
2015-May-26 23:33N 36°49' E 013°27'  
2015-May-24 07:33N 36°15' W 002°43'6211.7
2015-May-24 02:13N 36°07' W 003°59'5313.5
2015-May-23 22:16N 35°60' W 005°04'1013.4
2015-May-23 21:34N 35°59' W 005°16'1814.0
2015-May-23 20:16N 35°55' W 005°38'14712.2
2015-May-23 08:15N 35°51' W 008°39'1312.6
2015-May-23 07:14N 35°51' W 008°55'3412.1
2015-May-23 04:27N 35°50' W 009°37'1411.8
2015-May-23 03:16N 35°50' W 009°54'811.7
2015-May-23 02:33N 35°51' W 010°04'7212.1
2015-May-22 20:33N 36°15' W 011°29'1212.1
2015-May-22 19:33N 36°19' W 011°43'1212.1
2015-May-22 18:32N 36°23' W 011°57'1212.3
2015-May-22 17:32N 36°27' W 012°12'1211.9
2015-May-22 16:32N 36°31' W 012°26'1211.7
2015-May-22 15:33N 36°35' W 012°39'11911.5
2015-May-22 05:11N 37°15' W 015°00'43712.3
2015-May-20 17:33N 39°08' W 023°57'1412.6
2015-May-20 16:28N 39°11' W 024°15'1112.2
2015-May-20 15:33N 39°14' W 024°28'1712.2
2015-May-20 14:08N 39°18' W 024°50'712.5
2015-May-20 13:33N 39°20' W 024°59'4112.5
2015-May-20 10:15N 39°27' W 025°52'3412.5
2015-May-20 07:30N 39°33' W 026°36'1312.7
2015-May-20 06:26N 39°35' W 026°53'1412.5
2015-May-20 05:21N 39°38' W 027°11'1012.9
2015-May-20 04:33N 39°39' W 027°24'1312.6
2015-May-20 03:33N 39°41' W 027°40'1312.7
2015-May-20 02:33N 39°44' W 027°56'1212.5
2015-May-20 01:33N 39°46' W 028°12'1312.7
2015-May-20 00:33N 39°48' W 028°28'1312.8
2015-May-19 23:33N 39°50' W 028°45'1313.0
2015-May-19 22:33N 39°52' W 029°01'1313.4
2015-May-19 21:33N 39°54' W 029°19'1312.9
2015-May-19 20:34N 39°57' W 029°35'1312.7
2015-May-19 19:33N 39°59' W 029°51'1712.6
2015-May-19 18:14N 39°59' W 030°13'912.8
2015-May-19 17:32N 39°59' W 030°25'1312.7
2015-May-19 16:31N 39°58' W 030°42'1513.0
2015-May-19 15:20N 39°57' W 031°02'1013.1
2015-May-19 14:33N 39°57' W 031°15'1313.3
2015-May-19 13:33N 39°56' W 031°32'1313.0
2015-May-19 12:33N 39°55' W 031°49'  
Track history (hours):
 
Tides and Currents Weather Stations Pressure Air Temp Water Temp Dewpoint Dewpoint Depression Visibility Wind Speed Wind Dir Waves Ship Positions

Fortune Wing

Last reported at 2015-May-27 05:32 UTC. Time now 2015-May-29 02:15 UTC.
Position N 36°16' E 014°57'.

Length 190 m; draft 11.3 m.

Type: Cargo ship. MMSI: 477389500.

Date/timePositionNaut miles runAvg speedWind from/ knotsBaromVisibWave heightAir tempDewpointWater temp
2015-May-27 05:32N 36°16' E 014°57'1313.2
2015-May-27 04:33N 36°22' E 014°42'1313.3
2015-May-27 03:33N 36°27' E 014°27'1313.1
2015-May-27 02:33N 36°33' E 014°12'1313.0
2015-May-27 01:33N 36°38' E 013°57'1413.3
2015-May-27 00:32N 36°43' E 013°42'1313.3
2015-May-26 23:33N 36°49' E 013°27'  
2015-May-24 07:33N 36°15' W 002°43'6211.7
2015-May-24 02:13N 36°07' W 003°59'5313.5
2015-May-23 22:16N 35°60' W 005°04'1013.4
2015-May-23 21:34N 35°59' W 005°16'1814.0
2015-May-23 20:16N 35°55' W 005°38'14712.2
2015-May-23 08:15N 35°51' W 008°39'1312.6
2015-May-23 07:14N 35°51' W 008°55'3412.1
2015-May-23 04:27N 35°50' W 009°37'1411.8
2015-May-23 03:16N 35°50' W 009°54'811.7
2015-May-23 02:33N 35°51' W 010°04'7212.1
2015-May-22 20:33N 36°15' W 011°29'1212.1
2015-May-22 19:33N 36°19' W 011°43'1212.1
2015-May-22 18:32N 36°23' W 011°57'1212.3
2015-May-22 17:32N 36°27' W 012°12'1211.9
2015-May-22 16:32N 36°31' W 012°26'1211.7
2015-May-22 15:33N 36°35' W 012°39'11911.5
2015-May-22 05:11N 37°15' W 015°00'43712.3
2015-May-20 17:33N 39°08' W 023°57'1412.6
2015-May-20 16:28N 39°11' W 024°15'1112.2
2015-May-20 15:33N 39°14' W 024°28'1712.2
2015-May-20 14:08N 39°18' W 024°50'712.5
2015-May-20 13:33N 39°20' W 024°59'4112.5
2015-May-20 10:15N 39°27' W 025°52'3412.5
2015-May-20 07:30N 39°33' W 026°36'1312.7
2015-May-20 06:26N 39°35' W 026°53'1412.5
2015-May-20 05:21N 39°38' W 027°11'1012.9
2015-May-20 04:33N 39°39' W 027°24'1312.6
2015-May-20 03:33N 39°41' W 027°40'1312.7
2015-May-20 02:33N 39°44' W 027°56'1212.5
2015-May-20 01:33N 39°46' W 028°12'1312.7
2015-May-20 00:33N 39°48' W 028°28'1312.8
2015-May-19 23:33N 39°50' W 028°45'1313.0
2015-May-19 22:33N 39°52' W 029°01'1313.4
2015-May-19 21:33N 39°54' W 029°19'1312.9
2015-May-19 20:34N 39°57' W 029°35'1312.7
2015-May-19 19:33N 39°59' W 029°51'1712.6
2015-May-19 18:14N 39°59' W 030°13'912.8
2015-May-19 17:32N 39°59' W 030°25'1312.7
2015-May-19 16:31N 39°58' W 030°42'1513.0
2015-May-19 15:20N 39°57' W 031°02'1013.1
2015-May-19 14:33N 39°57' W 031°15'1313.3
2015-May-19 13:33N 39°56' W 031°32'1313.0
2015-May-19 12:33N 39°55' W 031°49'  

Dump ship's entire track history